sensor_id;sensor_type;location;lat;lon;timestamp;temperature;humidity
40756;DHT22;26461;45.630;9.418;2023-07-13T00:01:05;23.90;60.20
40756;DHT22;26461;45.630;9.418;2023-07-13T00:04:21;23.90;61.20
40756;DHT22;26461;45.630;9.418;2023-07-13T00:07:33;23.80;61.60
40756;DHT22;26461;45.630;9.418;2023-07-13T00:10:44;23.70;62.00
40756;DHT22;26461;45.630;9.418;2023-07-13T00:13:56;23.70;62.40
40756;DHT22;26461;45.630;9.418;2023-07-13T00:17:06;23.60;61.50
40756;DHT22;26461;45.630;9.418;2023-07-13T00:20:17;23.50;61.80
40756;DHT22;26461;45.630;9.418;2023-07-13T00:23:27;23.50;62.40
40756;DHT22;26461;45.630;9.418;2023-07-13T00:26:40;23.50;62.20
40756;DHT22;26461;45.630;9.418;2023-07-13T00:29:54;23.50;62.20
40756;DHT22;26461;45.630;9.418;2023-07-13T00:33:05;23.50;62.30
40756;DHT22;26461;45.630;9.418;2023-07-13T00:36:15;23.50;62.60
40756;DHT22;26461;45.630;9.418;2023-07-13T00:39:25;23.50;62.50
40756;DHT22;26461;45.630;9.418;2023-07-13T00:42:36;23.40;62.60
40756;DHT22;26461;45.630;9.418;2023-07-13T00:49:00;23.40;63.20
40756;DHT22;26461;45.630;9.418;2023-07-13T00:52:11;23.40;63.20
40756;DHT22;26461;45.630;9.418;2023-07-13T00:55:21;23.40;63.20
40756;DHT22;26461;45.630;9.418;2023-07-13T00:58:33;23.30;63.30
40756;DHT22;26461;45.630;9.418;2023-07-13T01:01:45;23.20;63.60
40756;DHT22;26461;45.630;9.418;2023-07-13T01:04:56;23.20;63.90
40756;DHT22;26461;45.630;9.418;2023-07-13T01:08:08;23.20;64.40
40756;DHT22;26461;45.630;9.418;2023-07-13T01:11:20;23.20;64.50
40756;DHT22;26461;45.630;9.418;2023-07-13T01:14:31;23.10;64.90
40756;DHT22;26461;45.630;9.418;2023-07-13T01:17:41;23.10;65.30
40756;DHT22;26461;45.630;9.418;2023-07-13T01:21:00;23.10;65.30
40756;DHT22;26461;45.630;9.418;2023-07-13T01:24:10;23.10;65.50
40756;DHT22;26461;45.630;9.418;2023-07-13T01:27:25;23.10;65.60
40756;DHT22;26461;45.630;9.418;2023-07-13T01:30:36;23.10;65.30
40756;DHT22;26461;45.630;9.418;2023-07-13T01:33:49;23.10;65.60
40756;DHT22;26461;45.630;9.418;2023-07-13T01:37:00;23.10;66.30
40756;DHT22;26461;45.630;9.418;2023-07-13T01:40:11;23.10;66.80
40756;DHT22;26461;45.630;9.418;2023-07-13T01:43:18;23.10;66.60
40756;DHT22;26461;45.630;9.418;2023-07-13T01:46:34;23.10;66.70
40756;DHT22;26461;45.630;9.418;2023-07-13T01:49:39;23.00;66.90
40756;DHT22;26461;45.630;9.418;2023-07-13T01:52:51;23.10;67.10
40756;DHT22;26461;45.630;9.418;2023-07-13T01:56:01;23.10;67.20
40756;DHT22;26461;45.630;9.418;2023-07-13T01:59:11;23.10;66.90
40756;DHT22;26461;45.630;9.418;2023-07-13T02:02:22;23.10;66.60
40756;DHT22;26461;45.630;9.418;2023-07-13T02:05:32;23.20;66.30
40756;DHT22;26461;45.630;9.418;2023-07-13T02:08:42;23.20;66.50
40756;DHT22;26461;45.630;9.418;2023-07-13T02:11:53;23.20;66.30
40756;DHT22;26461;45.630;9.418;2023-07-13T02:14:58;23.20;65.70
40756;DHT22;26461;45.630;9.418;2023-07-13T02:18:04;23.20;66.40
40756;DHT22;26461;45.630;9.418;2023-07-13T02:21:09;23.30;66.80
40756;DHT22;26461;45.630;9.418;2023-07-13T02:24:19;23.30;66.30
40756;DHT22;26461;45.630;9.418;2023-07-13T02:27:31;23.30;66.00
40756;DHT22;26461;45.630;9.418;2023-07-13T02:30:42;23.20;66.10
40756;DHT22;26461;45.630;9.418;2023-07-13T02:33:52;23.20;66.60
40756;DHT22;26461;45.630;9.418;2023-07-13T02:37:02;23.20;67.10
40756;DHT22;26461;45.630;9.418;2023-07-13T02:40:13;23.30;67.20
40756;DHT22;26461;45.630;9.418;2023-07-13T02:43:26;23.30;67.80
40756;DHT22;26461;45.630;9.418;2023-07-13T02:46:37;23.40;67.00
40756;DHT22;26461;45.630;9.418;2023-07-13T02:49:48;23.30;66.90
40756;DHT22;26461;45.630;9.418;2023-07-13T02:52:58;23.30;67.00
40756;DHT22;26461;45.630;9.418;2023-07-13T02:56:08;23.40;67.40
40756;DHT22;26461;45.630;9.418;2023-07-13T02:59:21;23.40;67.70
40756;DHT22;26461;45.630;9.418;2023-07-13T03:02:32;23.30;68.30
40756;DHT22;26461;45.630;9.418;2023-07-13T03:05:44;23.40;69.30
40756;DHT22;26461;45.630;9.418;2023-07-13T03:08:57;23.40;69.60
40756;DHT22;26461;45.630;9.418;2023-07-13T03:12:09;23.40;69.70
40756;DHT22;26461;45.630;9.418;2023-07-13T03:15:19;23.40;70.00
40756;DHT22;26461;45.630;9.418;2023-07-13T03:18:27;23.30;70.10
40756;DHT22;26461;45.630;9.418;2023-07-13T03:21:41;23.30;70.00
40756;DHT22;26461;45.630;9.418;2023-07-13T03:24:51;23.30;70.00
40756;DHT22;26461;45.630;9.418;2023-07-13T03:28:02;23.30;70.30
40756;DHT22;26461;45.630;9.418;2023-07-13T03:31:21;23.30;70.20
40756;DHT22;26461;45.630;9.418;2023-07-13T03:34:32;23.40;70.20
40756;DHT22;26461;45.630;9.418;2023-07-13T03:37:43;23.40;70.10
40756;DHT22;26461;45.630;9.418;2023-07-13T03:40:58;23.30;70.20
40756;DHT22;26461;45.630;9.418;2023-07-13T03:44:09;23.30;70.40
40756;DHT22;26461;45.630;9.418;2023-07-13T03:47:19;23.40;70.40
40756;DHT22;26461;45.630;9.418;2023-07-13T03:50:25;23.40;70.30
40756;DHT22;26461;45.630;9.418;2023-07-13T03:53:38;23.40;69.50
40756;DHT22;26461;45.630;9.418;2023-07-13T03:56:43;23.50;68.40
40756;DHT22;26461;45.630;9.418;2023-07-13T03:59:55;23.70;66.70
40756;DHT22;26461;45.630;9.418;2023-07-13T04:03:06;23.90;66.10
40756;DHT22;26461;45.630;9.418;2023-07-13T04:06:19;24.00;65.70
40756;DHT22;26461;45.630;9.418;2023-07-13T04:09:28;24.00;65.20
40756;DHT22;26461;45.630;9.418;2023-07-13T04:12:34;24.00;65.50
40756;DHT22;26461;45.630;9.418;2023-07-13T04:15:45;24.10;65.70
40756;DHT22;26461;45.630;9.418;2023-07-13T04:18:56;24.00;65.50
40756;DHT22;26461;45.630;9.418;2023-07-13T04:22:09;24.00;65.70
40756;DHT22;26461;45.630;9.418;2023-07-13T04:25:14;23.90;66.00
40756;DHT22;26461;45.630;9.418;2023-07-13T04:28:21;23.90;66.30
40756;DHT22;26461;45.630;9.418;2023-07-13T04:31:33;23.90;66.50
40756;DHT22;26461;45.630;9.418;2023-07-13T04:34:46;23.80;66.70
40756;DHT22;26461;45.630;9.418;2023-07-13T04:37:52;23.80;66.90
40756;DHT22;26461;45.630;9.418;2023-07-13T04:41:05;23.80;67.50
40756;DHT22;26461;45.630;9.418;2023-07-13T04:44:15;23.80;67.70
40756;DHT22;26461;45.630;9.418;2023-07-13T04:47:25;23.70;67.90
40756;DHT22;26461;45.630;9.418;2023-07-13T04:50:30;23.70;68.10
40756;DHT22;26461;45.630;9.418;2023-07-13T04:53:41;23.70;68.00
40756;DHT22;26461;45.630;9.418;2023-07-13T04:56:46;23.70;68.30
40756;DHT22;26461;45.630;9.418;2023-07-13T04:59:59;23.80;68.10
40756;DHT22;26461;45.630;9.418;2023-07-13T05:03:11;23.80;67.50
40756;DHT22;26461;45.630;9.418;2023-07-13T05:06:21;23.80;68.10
40756;DHT22;26461;45.630;9.418;2023-07-13T05:09:26;23.90;66.80
40756;DHT22;26461;45.630;9.418;2023-07-13T05:12:37;24.00;66.70
40756;DHT22;26461;45.630;9.418;2023-07-13T05:15:56;24.10;66.10
40756;DHT22;26461;45.630;9.418;2023-07-13T05:19:02;24.20;65.60
40756;DHT22;26461;45.630;9.418;2023-07-13T05:22:13;24.20;65.10
40756;DHT22;26461;45.630;9.418;2023-07-13T05:25:23;24.20;65.20
40756;DHT22;26461;45.630;9.418;2023-07-13T05:28:30;24.30;65.10
40756;DHT22;26461;45.630;9.418;2023-07-13T05:31:41;24.30;65.10
40756;DHT22;26461;45.630;9.418;2023-07-13T05:34:46;24.30;64.70
40756;DHT22;26461;45.630;9.418;2023-07-13T05:37:56;24.30;64.30
40756;DHT22;26461;45.630;9.418;2023-07-13T05:41:08;24.30;63.90
40756;DHT22;26461;45.630;9.418;2023-07-13T05:44:13;24.30;64.10
40756;DHT22;26461;45.630;9.418;2023-07-13T05:47:23;24.30;64.00
40756;DHT22;26461;45.630;9.418;2023-07-13T05:50:33;24.40;63.40
40756;DHT22;26461;45.630;9.418;2023-07-13T05:53:49;24.40;63.00
40756;DHT22;26461;45.630;9.418;2023-07-13T05:57:00;24.40;62.50
40756;DHT22;26461;45.630;9.418;2023-07-13T06:00:10;24.40;62.90
40756;DHT22;26461;45.630;9.418;2023-07-13T06:03:20;24.40;62.80
40756;DHT22;26461;45.630;9.418;2023-07-13T06:06:33;24.40;62.60
40756;DHT22;26461;45.630;9.418;2023-07-13T06:09:47;24.40;62.60
40756;DHT22;26461;45.630;9.418;2023-07-13T06:12:56;24.40;62.80
40756;DHT22;26461;45.630;9.418;2023-07-13T06:16:07;24.40;63.80
40756;DHT22;26461;45.630;9.418;2023-07-13T06:19:19;24.40;63.50
40756;DHT22;26461;45.630;9.418;2023-07-13T06:22:29;24.40;64.00
40756;DHT22;26461;45.630;9.418;2023-07-13T06:25:40;24.40;63.70
40756;DHT22;26461;45.630;9.418;2023-07-13T06:28:50;24.40;63.80
40756;DHT22;26461;45.630;9.418;2023-07-13T06:31:55;24.50;62.90
40756;DHT22;26461;45.630;9.418;2023-07-13T06:35:05;24.50;62.90
40756;DHT22;26461;45.630;9.418;2023-07-13T06:38:16;24.50;63.30
40756;DHT22;26461;45.630;9.418;2023-07-13T06:41:26;24.60;63.70
40756;DHT22;26461;45.630;9.418;2023-07-13T06:44:31;24.60;64.40
40756;DHT22;26461;45.630;9.418;2023-07-13T06:47:42;24.60;64.30
40756;DHT22;26461;45.630;9.418;2023-07-13T06:50:52;24.60;64.10
40756;DHT22;26461;45.630;9.418;2023-07-13T06:54:03;24.60;64.10
40756;DHT22;26461;45.630;9.418;2023-07-13T06:57:14;24.60;63.90
40756;DHT22;26461;45.630;9.418;2023-07-13T07:00:19;24.60;64.30
40756;DHT22;26461;45.630;9.418;2023-07-13T07:03:29;24.70;63.50
40756;DHT22;26461;45.630;9.418;2023-07-13T07:06:39;24.70;63.50
40756;DHT22;26461;45.630;9.418;2023-07-13T07:09:50;24.80;62.80
40756;DHT22;26461;45.630;9.418;2023-07-13T07:12:55;24.80;61.80
40756;DHT22;26461;45.630;9.418;2023-07-13T07:16:06;24.80;61.30
40756;DHT22;26461;45.630;9.418;2023-07-13T07:19:17;24.80;60.60
40756;DHT22;26461;45.630;9.418;2023-07-13T07:22:27;24.90;60.50
40756;DHT22;26461;45.630;9.418;2023-07-13T07:25:37;24.90;59.70
40756;DHT22;26461;45.630;9.418;2023-07-13T07:28:52;24.90;58.70
40756;DHT22;26461;45.630;9.418;2023-07-13T07:32:02;24.90;58.80
40756;DHT22;26461;45.630;9.418;2023-07-13T07:35:07;24.90;59.10
40756;DHT22;26461;45.630;9.418;2023-07-13T07:38:18;25.00;59.30
40756;DHT22;26461;45.630;9.418;2023-07-13T07:41:28;25.00;59.20
40756;DHT22;26461;45.630;9.418;2023-07-13T07:44:40;25.10;59.20
40756;DHT22;26461;45.630;9.418;2023-07-13T07:47:51;25.10;59.20
40756;DHT22;26461;45.630;9.418;2023-07-13T07:51:02;25.10;59.10
40756;DHT22;26461;45.630;9.418;2023-07-13T07:54:07;25.10;58.70
40756;DHT22;26461;45.630;9.418;2023-07-13T07:57:13;25.20;58.80
40756;DHT22;26461;45.630;9.418;2023-07-13T08:00:23;25.30;58.70
40756;DHT22;26461;45.630;9.418;2023-07-13T08:03:29;25.30;58.50
40756;DHT22;26461;45.630;9.418;2023-07-13T08:06:40;25.30;58.00
40756;DHT22;26461;45.630;9.418;2023-07-13T08:09:54;25.40;57.90
40756;DHT22;26461;45.630;9.418;2023-07-13T08:13:04;25.40;58.00
40756;DHT22;26461;45.630;9.418;2023-07-13T08:16:15;25.40;58.50
40756;DHT22;26461;45.630;9.418;2023-07-13T08:19:26;25.50;58.20
40756;DHT22;26461;45.630;9.418;2023-07-13T08:22:36;25.50;58.60
40756;DHT22;26461;45.630;9.418;2023-07-13T08:25:42;25.50;58.40
40756;DHT22;26461;45.630;9.418;2023-07-13T08:28:52;25.50;58.60
40756;DHT22;26461;45.630;9.418;2023-07-13T08:32:05;25.60;58.30
40756;DHT22;26461;45.630;9.418;2023-07-13T08:35:17;25.60;57.70
40756;DHT22;26461;45.630;9.418;2023-07-13T08:38:27;25.60;57.30
40756;DHT22;26461;45.630;9.418;2023-07-13T08:41:38;25.60;57.40
40756;DHT22;26461;45.630;9.418;2023-07-13T08:45:02;25.70;57.20
40756;DHT22;26461;45.630;9.418;2023-07-13T08:48:49;25.70;57.40
40756;DHT22;26461;45.630;9.418;2023-07-13T08:55:17;25.80;56.60
40756;DHT22;26461;45.630;9.418;2023-07-13T08:58:29;25.80;56.60
40756;DHT22;26461;45.630;9.418;2023-07-13T09:05:38;25.80;55.90
40756;DHT22;26461;45.630;9.418;2023-07-13T09:09:00;25.80;55.80
40756;DHT22;26461;45.630;9.418;2023-07-13T09:15:44;25.90;56.60
40756;DHT22;26461;45.630;9.418;2023-07-13T09:19:02;25.90;56.60
40756;DHT22;26461;45.630;9.418;2023-07-13T09:22:17;25.90;56.20
40756;DHT22;26461;45.630;9.418;2023-07-13T09:25:34;26.00;57.10
40756;DHT22;26461;45.630;9.418;2023-07-13T09:28:51;26.00;57.30
40756;DHT22;26461;45.630;9.418;2023-07-13T09:32:06;26.00;57.00
40756;DHT22;26461;45.630;9.418;2023-07-13T09:35:25;26.10;57.10
40756;DHT22;26461;45.630;9.418;2023-07-13T09:38:37;26.10;57.20
40756;DHT22;26461;45.630;9.418;2023-07-13T09:42:03;26.10;56.60
40756;DHT22;26461;45.630;9.418;2023-07-13T09:45:27;26.10;56.10
40756;DHT22;26461;45.630;9.418;2023-07-13T09:48:37;26.10;56.00
40756;DHT22;26461;45.630;9.418;2023-07-13T09:51:48;26.10;56.10
40756;DHT22;26461;45.630;9.418;2023-07-13T09:54:58;26.10;57.30
40756;DHT22;26461;45.630;9.418;2023-07-13T10:01:36;26.10;57.20
40756;DHT22;26461;45.630;9.418;2023-07-13T10:04:56;26.20;57.00
40756;DHT22;26461;45.630;9.418;2023-07-13T10:08:26;26.20;57.00
40756;DHT22;26461;45.630;9.418;2023-07-13T10:11:40;26.20;56.80
40756;DHT22;26461;45.630;9.418;2023-07-13T10:14:55;26.30;56.90
40756;DHT22;26461;45.630;9.418;2023-07-13T10:18:01;26.30;57.20
40756;DHT22;26461;45.630;9.418;2023-07-13T10:21:21;26.30;56.90
40756;DHT22;26461;45.630;9.418;2023-07-13T10:27:40;26.30;57.00
40756;DHT22;26461;45.630;9.418;2023-07-13T10:30:46;26.30;57.50
40756;DHT22;26461;45.630;9.418;2023-07-13T10:33:56;26.30;57.40
40756;DHT22;26461;45.630;9.418;2023-07-13T10:37:18;26.40;57.80
40756;DHT22;26461;45.630;9.418;2023-07-13T10:40:45;26.40;57.80
40756;DHT22;26461;45.630;9.418;2023-07-13T10:43:55;26.40;58.00
40756;DHT22;26461;45.630;9.418;2023-07-13T10:47:15;26.40;58.30
40756;DHT22;26461;45.630;9.418;2023-07-13T10:50:29;26.50;58.00
40756;DHT22;26461;45.630;9.418;2023-07-13T10:53:43;26.50;58.00
40756;DHT22;26461;45.630;9.418;2023-07-13T10:57:16;26.50;58.20
40756;DHT22;26461;45.630;9.418;2023-07-13T11:00:31;26.50;58.50
40756;DHT22;26461;45.630;9.418;2023-07-13T11:03:58;26.50;58.70
40756;DHT22;26461;45.630;9.418;2023-07-13T11:07:18;26.60;58.50
40756;DHT22;26461;45.630;9.418;2023-07-13T11:10:50;26.60;58.50
40756;DHT22;26461;45.630;9.418;2023-07-13T11:14:03;26.60;58.20
40756;DHT22;26461;45.630;9.418;2023-07-13T11:20:41;26.50;57.90
40756;DHT22;26461;45.630;9.418;2023-07-13T11:24:01;26.60;58.10
40756;DHT22;26461;45.630;9.418;2023-07-13T11:30:38;26.60;56.00
40756;DHT22;26461;45.630;9.418;2023-07-13T11:33:56;26.60;55.30
40756;DHT22;26461;45.630;9.418;2023-07-13T11:37:12;26.50;56.00
40756;DHT22;26461;45.630;9.418;2023-07-13T11:40:23;26.60;56.60
40756;DHT22;26461;45.630;9.418;2023-07-13T11:43:37;26.60;56.50
40756;DHT22;26461;45.630;9.418;2023-07-13T11:46:53;26.60;55.80
40756;DHT22;26461;45.630;9.418;2023-07-13T11:50:04;26.60;56.10
40756;DHT22;26461;45.630;9.418;2023-07-13T11:53:16;26.60;57.20
40756;DHT22;26461;45.630;9.418;2023-07-13T11:56:27;26.70;57.60
40756;DHT22;26461;45.630;9.418;2023-07-13T11:59:40;26.70;57.50
40756;DHT22;26461;45.630;9.418;2023-07-13T12:02:53;26.80;57.40
40756;DHT22;26461;45.630;9.418;2023-07-13T12:06:06;26.80;57.10
40756;DHT22;26461;45.630;9.418;2023-07-13T12:09:29;26.80;56.60
40756;DHT22;26461;45.630;9.418;2023-07-13T12:12:36;26.90;56.90
40756;DHT22;26461;45.630;9.418;2023-07-13T12:15:47;26.90;56.80
40756;DHT22;26461;45.630;9.418;2023-07-13T12:19:02;26.90;57.50
40756;DHT22;26461;45.630;9.418;2023-07-13T12:22:14;26.90;56.90
40756;DHT22;26461;45.630;9.418;2023-07-13T12:25:23;26.90;56.10
40756;DHT22;26461;45.630;9.418;2023-07-13T12:31:45;26.90;55.00
40756;DHT22;26461;45.630;9.418;2023-07-13T12:35:13;26.80;54.30
40756;DHT22;26461;45.630;9.418;2023-07-13T12:38:27;26.80;54.30
40756;DHT22;26461;45.630;9.418;2023-07-13T12:41:37;26.80;54.80
40756;DHT22;26461;45.630;9.418;2023-07-13T12:44:47;26.80;54.30
40756;DHT22;26461;45.630;9.418;2023-07-13T12:48:03;26.80;55.00
40756;DHT22;26461;45.630;9.418;2023-07-13T12:51:12;26.80;55.20
40756;DHT22;26461;45.630;9.418;2023-07-13T12:54:27;26.80;54.80
40756;DHT22;26461;45.630;9.418;2023-07-13T12:57:57;26.70;55.20
40756;DHT22;26461;45.630;9.418;2023-07-13T13:01:07;26.80;58.10
40756;DHT22;26461;45.630;9.418;2023-07-13T13:04:23;26.80;57.60
40756;DHT22;26461;45.630;9.418;2023-07-13T13:07:34;26.80;57.90
40756;DHT22;26461;45.630;9.418;2023-07-13T13:10:47;26.80;56.40
40756;DHT22;26461;45.630;9.418;2023-07-13T13:14:00;26.80;56.60
40756;DHT22;26461;45.630;9.418;2023-07-13T13:17:19;26.80;56.90
40756;DHT22;26461;45.630;9.418;2023-07-13T13:20:33;26.90;56.60
40756;DHT22;26461;45.630;9.418;2023-07-13T13:23:40;27.00;55.80
40756;DHT22;26461;45.630;9.418;2023-07-13T13:26:46;27.00;55.90
40756;DHT22;26461;45.630;9.418;2023-07-13T13:29:59;27.10;55.90
40756;DHT22;26461;45.630;9.418;2023-07-13T13:33:15;27.10;55.80
40756;DHT22;26461;45.630;9.418;2023-07-13T13:36:26;27.20;55.80
40756;DHT22;26461;45.630;9.418;2023-07-13T13:39:37;27.20;56.00
40756;DHT22;26461;45.630;9.418;2023-07-13T13:42:49;27.20;55.70
40756;DHT22;26461;45.630;9.418;2023-07-13T13:45:59;27.20;55.70
40756;DHT22;26461;45.630;9.418;2023-07-13T13:49:14;27.30;55.60
40756;DHT22;26461;45.630;9.418;2023-07-13T13:52:25;27.30;55.90
40756;DHT22;26461;45.630;9.418;2023-07-13T13:55:36;27.50;55.80
40756;DHT22;26461;45.630;9.418;2023-07-13T13:58:46;27.50;55.50
40756;DHT22;26461;45.630;9.418;2023-07-13T14:01:57;27.60;55.60
40756;DHT22;26461;45.630;9.418;2023-07-13T14:05:13;27.60;55.00
40756;DHT22;26461;45.630;9.418;2023-07-13T14:08:23;27.70;54.70
40756;DHT22;26461;45.630;9.418;2023-07-13T14:11:34;27.80;54.90
40756;DHT22;26461;45.630;9.418;2023-07-13T14:14:45;27.90;54.90
40756;DHT22;26461;45.630;9.418;2023-07-13T14:17:56;28.00;54.40
40756;DHT22;26461;45.630;9.418;2023-07-13T14:21:19;28.10;54.80
40756;DHT22;26461;45.630;9.418;2023-07-13T14:24:29;28.30;54.40
40756;DHT22;26461;45.630;9.418;2023-07-13T14:27:41;28.40;54.50
40756;DHT22;26461;45.630;9.418;2023-07-13T14:30:53;28.50;53.80
40756;DHT22;26461;45.630;9.418;2023-07-13T14:34:04;28.60;53.50
40756;DHT22;26461;45.630;9.418;2023-07-13T14:37:15;28.70;52.70
40756;DHT22;26461;45.630;9.418;2023-07-13T14:40:31;28.80;52.00
40756;DHT22;26461;45.630;9.418;2023-07-13T14:43:37;29.00;51.60
40756;DHT22;26461;45.630;9.418;2023-07-13T14:46:45;29.00;51.80
40756;DHT22;26461;45.630;9.418;2023-07-13T14:49:56;29.10;51.80
40756;DHT22;26461;45.630;9.418;2023-07-13T14:53:10;29.10;51.60
40756;DHT22;26461;45.630;9.418;2023-07-13T14:56:21;29.10;53.10
40756;DHT22;26461;45.630;9.418;2023-07-13T14:59:31;29.10;52.90
40756;DHT22;26461;45.630;9.418;2023-07-13T15:02:43;29.00;51.30
40756;DHT22;26461;45.630;9.418;2023-07-13T15:05:54;29.00;51.00
40756;DHT22;26461;45.630;9.418;2023-07-13T15:09:00;29.10;51.60
40756;DHT22;26461;45.630;9.418;2023-07-13T15:12:10;29.20;50.80
40756;DHT22;26461;45.630;9.418;2023-07-13T15:15:21;29.20;51.00
40756;DHT22;26461;45.630;9.418;2023-07-13T15:18:26;29.30;51.30
40756;DHT22;26461;45.630;9.418;2023-07-13T15:21:37;29.30;51.00
40756;DHT22;26461;45.630;9.418;2023-07-13T15:24:48;29.40;51.10
40756;DHT22;26461;45.630;9.418;2023-07-13T15:28:00;29.40;51.30
40756;DHT22;26461;45.630;9.418;2023-07-13T15:31:25;29.50;51.70
40756;DHT22;26461;45.630;9.418;2023-07-13T15:34:44;29.50;51.00
40756;DHT22;26461;45.630;9.418;2023-07-13T15:37:54;29.50;51.50
40756;DHT22;26461;45.630;9.418;2023-07-13T15:41:26;29.50;51.20
40756;DHT22;26461;45.630;9.418;2023-07-13T15:44:37;29.40;51.60
40756;DHT22;26461;45.630;9.418;2023-07-13T15:47:49;29.40;51.40
40756;DHT22;26461;45.630;9.418;2023-07-13T15:51:08;29.40;51.80
40756;DHT22;26461;45.630;9.418;2023-07-13T15:54:22;29.50;51.60
40756;DHT22;26461;45.630;9.418;2023-07-13T15:57:29;29.50;51.60
40756;DHT22;26461;45.630;9.418;2023-07-13T16:00:34;29.60;51.40
40756;DHT22;26461;45.630;9.418;2023-07-13T16:03:40;29.60;50.70
40756;DHT22;26461;45.630;9.418;2023-07-13T16:06:51;29.60;51.20
40756;DHT22;26461;45.630;9.418;2023-07-13T16:10:01;29.70;51.30
40756;DHT22;26461;45.630;9.418;2023-07-13T16:13:17;29.80;51.40
40756;DHT22;26461;45.630;9.418;2023-07-13T16:16:33;29.90;50.60
40756;DHT22;26461;45.630;9.418;2023-07-13T16:19:44;29.90;51.10
40756;DHT22;26461;45.630;9.418;2023-07-13T16:22:51;30.00;50.70
40756;DHT22;26461;45.630;9.418;2023-07-13T16:25:58;29.90;51.10
40756;DHT22;26461;45.630;9.418;2023-07-13T16:32:18;30.10;50.00
40756;DHT22;26461;45.630;9.418;2023-07-13T16:35:30;30.10;50.20
40756;DHT22;26461;45.630;9.418;2023-07-13T16:38:44;30.10;49.80
40756;DHT22;26461;45.630;9.418;2023-07-13T16:41:57;30.20;49.80
40756;DHT22;26461;45.630;9.418;2023-07-13T16:45:03;30.20;49.40
40756;DHT22;26461;45.630;9.418;2023-07-13T16:48:15;30.20;49.40
40756;DHT22;26461;45.630;9.418;2023-07-13T16:51:25;30.20;49.10
40756;DHT22;26461;45.630;9.418;2023-07-13T16:54:37;30.20;48.80
40756;DHT22;26461;45.630;9.418;2023-07-13T16:57:49;30.20;48.00
40756;DHT22;26461;45.630;9.418;2023-07-13T17:01:00;30.20;47.90
40756;DHT22;26461;45.630;9.418;2023-07-13T17:04:16;30.20;48.50
40756;DHT22;26461;45.630;9.418;2023-07-13T17:07:33;30.20;48.90
40756;DHT22;26461;45.630;9.418;2023-07-13T17:10:38;30.30;48.30
40756;DHT22;26461;45.630;9.418;2023-07-13T17:14:18;30.30;48.60
40756;DHT22;26461;45.630;9.418;2023-07-13T17:17:32;30.30;47.90
40756;DHT22;26461;45.630;9.418;2023-07-13T17:20:41;30.40;48.10
40756;DHT22;26461;45.630;9.418;2023-07-13T17:23:52;30.50;47.90
40756;DHT22;26461;45.630;9.418;2023-07-13T17:27:02;30.60;47.40
40756;DHT22;26461;45.630;9.418;2023-07-13T17:30:18;30.70;47.10
40756;DHT22;26461;45.630;9.418;2023-07-13T17:33:34;30.70;46.60
40756;DHT22;26461;45.630;9.418;2023-07-13T17:36:40;30.80;46.30
40756;DHT22;26461;45.630;9.418;2023-07-13T17:39:50;30.80;47.10
40756;DHT22;26461;45.630;9.418;2023-07-13T17:43:00;30.90;46.90
40756;DHT22;26461;45.630;9.418;2023-07-13T17:49:23;31.00;46.00
40756;DHT22;26461;45.630;9.418;2023-07-13T17:52:42;31.00;45.20
40756;DHT22;26461;45.630;9.418;2023-07-13T17:55:53;31.00;45.00
40756;DHT22;26461;45.630;9.418;2023-07-13T17:59:04;31.10;45.20
40756;DHT22;26461;45.630;9.418;2023-07-13T18:02:20;31.10;44.70
40756;DHT22;26461;45.630;9.418;2023-07-13T18:05:31;31.10;44.60
40756;DHT22;26461;45.630;9.418;2023-07-13T18:08:37;31.10;44.50
40756;DHT22;26461;45.630;9.418;2023-07-13T18:11:48;31.10;44.00
40756;DHT22;26461;45.630;9.418;2023-07-13T18:14:58;31.10;43.80
40756;DHT22;26461;45.630;9.418;2023-07-13T18:18:09;31.10;44.40
40756;DHT22;26461;45.630;9.418;2023-07-13T18:21:20;31.00;44.60
40756;DHT22;26461;45.630;9.418;2023-07-13T18:24:31;31.00;44.50
40756;DHT22;26461;45.630;9.418;2023-07-13T18:27:42;30.90;44.60
40756;DHT22;26461;45.630;9.418;2023-07-13T18:30:54;30.90;45.40
40756;DHT22;26461;45.630;9.418;2023-07-13T18:34:06;30.90;45.70
40756;DHT22;26461;45.630;9.418;2023-07-13T18:37:18;30.80;45.70
40756;DHT22;26461;45.630;9.418;2023-07-13T18:40:29;30.80;45.70
40756;DHT22;26461;45.630;9.418;2023-07-13T18:43:39;30.70;45.80
40756;DHT22;26461;45.630;9.418;2023-07-13T18:46:50;30.60;45.50
40756;DHT22;26461;45.630;9.418;2023-07-13T18:50:00;30.60;45.70
40756;DHT22;26461;45.630;9.418;2023-07-13T18:53:13;30.40;45.80
40756;DHT22;26461;45.630;9.418;2023-07-13T18:56:27;30.40;45.50
40756;DHT22;26461;45.630;9.418;2023-07-13T18:59:33;30.30;45.30
40756;DHT22;26461;45.630;9.418;2023-07-13T19:02:43;30.20;45.30
40756;DHT22;26461;45.630;9.418;2023-07-13T19:05:53;30.20;45.50
40756;DHT22;26461;45.630;9.418;2023-07-13T19:08:59;30.10;45.70
40756;DHT22;26461;45.630;9.418;2023-07-13T19:12:21;30.00;45.70
40756;DHT22;26461;45.630;9.418;2023-07-13T19:15:33;29.90;45.90
40756;DHT22;26461;45.630;9.418;2023-07-13T19:18:41;29.80;46.10
40756;DHT22;26461;45.630;9.418;2023-07-13T19:21:54;29.80;46.10
40756;DHT22;26461;45.630;9.418;2023-07-13T19:25:12;29.70;46.20
40756;DHT22;26461;45.630;9.418;2023-07-13T19:28:42;29.60;41.90
40756;DHT22;26461;45.630;9.418;2023-07-13T19:31:53;29.40;45.00
40756;DHT22;26461;45.630;9.418;2023-07-13T19:35:00;29.10;46.10
40756;DHT22;26461;45.630;9.418;2023-07-13T19:38:21;28.90;46.40
40756;DHT22;26461;45.630;9.418;2023-07-13T19:41:35;28.70;46.90
40756;DHT22;26461;45.630;9.418;2023-07-13T19:44:46;28.50;47.60
40756;DHT22;26461;45.630;9.418;2023-07-13T19:47:56;28.40;47.80
40756;DHT22;26461;45.630;9.418;2023-07-13T19:51:01;28.30;48.10
40756;DHT22;26461;45.630;9.418;2023-07-13T19:54:15;28.20;48.30
40756;DHT22;26461;45.630;9.418;2023-07-13T19:57:28;28.20;48.20
40756;DHT22;26461;45.630;9.418;2023-07-13T20:00:38;28.10;48.40
40756;DHT22;26461;45.630;9.418;2023-07-13T20:03:48;28.10;48.70
40756;DHT22;26461;45.630;9.418;2023-07-13T20:06:58;28.00;49.30
40756;DHT22;26461;45.630;9.418;2023-07-13T20:10:26;28.00;49.40
40756;DHT22;26461;45.630;9.418;2023-07-13T20:13:39;27.90;49.90
40756;DHT22;26461;45.630;9.418;2023-07-13T20:16:52;27.80;50.00
40756;DHT22;26461;45.630;9.418;2023-07-13T20:20:20;27.70;50.40
40756;DHT22;26461;45.630;9.418;2023-07-13T20:23:32;27.60;50.50
40756;DHT22;26461;45.630;9.418;2023-07-13T20:26:43;27.60;50.40
40756;DHT22;26461;45.630;9.418;2023-07-13T20:29:54;27.50;50.50
40756;DHT22;26461;45.630;9.418;2023-07-13T20:33:18;27.50;50.30
40756;DHT22;26461;45.630;9.418;2023-07-13T20:36:24;27.40;50.30
40756;DHT22;26461;45.630;9.418;2023-07-13T20:39:35;27.40;50.90
40756;DHT22;26461;45.630;9.418;2023-07-13T20:42:45;27.30;50.50
40756;DHT22;26461;45.630;9.418;2023-07-13T20:45:59;27.30;50.70
40756;DHT22;26461;45.630;9.418;2023-07-13T20:49:11;27.20;50.60